マニラ/ニノイ・アキノ の空港の天気 - METARとTAF

ニノイ・アキノ国際空港 ( RPLL / MNL ) - フィリピン マニラ
飛行場実況気象(Metar)
観測時間11/15 01:00 PHT (11/14 17:00 UTC)
風向・風速不定 1m/s
視程10km以上
天気現象
少しの雲 雲底高度 760m
気温26℃
湿度84%
気圧1012hPa
METARRPLL 141700Z VRB01KT 9999 FEW025 26/23 Q1012 NOSIG RMK A2988
過去の天気等 Google飛行場航空写真 Wunderground天気予報

過去48時間のMETAR

飛行場予報(TAF)
発表時間: 11/14 19:00 PHT (11/14 11:00 UTC)
予報対象時間: 14日20時 PHT ~ 16日2時 PHT
風向・風速東南東 4m/s
視程10km以上
少しの雲 雲底高度 760m
14日20時 PHT ~ 15日2時 PHT に一時的に
風向・風速東 5m/s
少しの雲 雲底高度 700m
15日2時 PHT ~ 15日8時 PHT に一時的に
風向・風速北東 4m/s
少しの雲 雲底高度 700m
全天の8割程度の雲 雲底高度 3050m
TAF RPLL 141100Z 1412/1518 11008KT 9999 FEW025 TX33/1507Z TN25/1422Z
TEMPO 1412/1418 08010KT FEW023
TEMPO 1418/1424 05007KT FEW023 BKN100